Texas City — WDD4983 — position and weather

sailwx.info

Track history (hours):
 
Tides and Currents Weather Stations Pressure Air Temp Water Temp Dewpoint Dewpoint Depression Visibility Wind Speed Wind Dir Waves Ship Positions

Texas City

Owner: Marathon Petroleum Company LP, Findlay, OH. More information available from US FCC via Universal Licensing System and Coast Guard Vessel Documentation Center.

Last reported at 2017-Jul-19 23:38 UTC. Time now 2017-Jul-20 20:25 UTC.
Position N 29°51' W 091°54'.

Length 224 m; draft 2.9 m.

Type: . MMSI: 367135470.

Date/timePositionNaut miles runAvg speedWind from/ knotsBaromVisibWave heightAir tempDewpointWater temp
2017-Jul-19 23:38N 29°51' W 091°54'1 5.0
2017-Jul-19 23:24N 29°51' W 091°55'2 4.4
2017-Jul-19 23:01N 29°50' W 091°57'2 4.0
2017-Jul-19 22:30N 29°50' W 091°60'2 4.5
2017-Jul-19 22:00N 29°49' W 092°02'2 4.4
2017-Jul-19 21:31N 29°48' W 092°04'2 4.5
2017-Jul-19 21:00N 29°48' W 092°07'2 4.0
2017-Jul-19 20:30N 29°47' W 092°09'2 4.3
2017-Jul-19 20:00N 29°47' W 092°11'2 4.9
2017-Jul-19 19:30N 29°48' W 092°14'2 4.9
2017-Jul-19 19:01N 29°49' W 092°17'3 4.4
2017-Jul-19 18:26N 29°50' W 092°19'41 4.3
2017-Jul-19 08:47N 29°56' W 093°06'1 4.0
2017-Jul-19 08:30N 29°56' W 093°07'2 4.0
2017-Jul-19 08:00N 29°56' W 093°09'2 4.1
2017-Jul-19 07:30N 29°58' W 093°11'2 4.0
2017-Jul-19 07:00N 29°59' W 093°13'2 3.6
2017-Jul-19 06:31N 30°01' W 093°14'2 3.3
2017-Jul-19 06:01N 30°02' W 093°15'2 3.2
2017-Jul-19 05:30N 30°03' W 093°16'1 3.0
2017-Jul-19 05:00N 30°05' W 093°17'2 3.2
2017-Jul-19 04:30N 30°06' W 093°18'1 1.8
2017-Jul-19 04:00N 30°06' W 093°19'2 4.0
2017-Jul-19 03:30N 30°04' W 093°20'2 3.4
2017-Jul-19 03:00N 30°04' W 093°22'1 2.6
2017-Jul-19 02:30N 30°04' W 093°24'2 3.6
2017-Jul-19 02:00N 30°04' W 093°26'2 4.4
2017-Jul-19 01:30N 30°04' W 093°28'2 4.6
2017-Jul-19 01:00N 30°04' W 093°31'2 4.7
2017-Jul-19 00:31N 30°04' W 093°34'2 4.4
2017-Jul-19 00:00N 30°04' W 093°36'2 4.3
2017-Jul-18 23:30N 30°04' W 093°39'72 3.0
2017-Jul-17 23:06N 29°28' W 094°51'1 6.9
2017-Jul-17 23:00N 29°29' W 094°51'3 6.9
2017-Jul-17 22:31N 29°32' W 094°53'3 6.5
2017-Jul-17 22:01N 29°34' W 094°56'3 6.2
2017-Jul-17 21:30N 29°37' W 094°57'3 6.4
2017-Jul-17 21:00N 29°40' W 094°59'3 6.6
2017-Jul-17 20:30N 29°42' W 095°01'4 5.9
2017-Jul-17 19:48N 29°46' W 095°04'2 4.2
2017-Jul-17 19:26N 29°45' W 095°06'3 6.3
2017-Jul-17 18:59N 29°44' W 095°09'3 5.3
2017-Jul-17 18:30N 29°44' W 095°12'0 0.2
2017-Jul-17 17:53N 29°44' W 095°12'0 0.2
2017-Jul-17 16:44N 29°44' W 095°12'0 0.1
2017-Jul-17 16:30N 29°44' W 095°12'0 0.0
2017-Jul-17 16:00N 29°44' W 095°12'0 0.0
2017-Jul-17 15:30N 29°44' W 095°12'0 0.0
2017-Jul-17 14:04N 29°44' W 095°12'0 0.1
2017-Jul-17 13:57N 29°44' W 095°12'0 0.0
2017-Jul-17 13:23N 29°44' W 095°12'0 0.0
2017-Jul-17 12:58N 29°44' W 095°12'0 0.0
2017-Jul-17 12:25N 29°44' W 095°12'0 0.0
2017-Jul-17 11:59N 29°44' W 095°12'0 0.0
2017-Jul-17 04:44N 29°44' W 095°12'0 0.0
2017-Jul-16 21:51N 29°44' W 095°12'0 0.1
2017-Jul-16 21:06N 29°44' W 095°12'0 1.2
2017-Jul-16 20:59N 29°44' W 095°12'0 0.1
2017-Jul-16 17:21N 29°44' W 095°12'0 0.0
2017-Jul-16 14:33N 29°44' W 095°12'0 0.0
2017-Jul-16 14:18N 29°44' W 095°12'0 0.0
2017-Jul-16 14:00N 29°44' W 095°12'0 0.0
2017-Jul-16 13:29N 29°44' W 095°12'0 0.0
2017-Jul-16 12:59N 29°44' W 095°12'0 0.0
2017-Jul-16 12:29N 29°44' W 095°12'0 0.0
2017-Jul-16 11:59N 29°44' W 095°12'0 0.0
2017-Jul-16 11:22N 29°44' W 095°12'0 0.0
2017-Jul-16 11:00N 29°44' W 095°12'0 0.0
2017-Jul-16 10:22N 29°44' W 095°12'0 0.0
2017-Jul-16 09:39N 29°44' W 095°12'0 0.0
2017-Jul-16 09:26N 29°44' W 095°12'0 0.0
2017-Jul-16 09:00N 29°44' W 095°12'0 0.0
2017-Jul-16 08:26N 29°44' W 095°12'0 0.0
2017-Jul-16 07:54N 29°44' W 095°12'0 0.0
2017-Jul-16 07:22N 29°44' W 095°12'0 0.0
2017-Jul-16 05:54N 29°44' W 095°12'0 0.5
2017-Jul-16 05:30N 29°44' W 095°12'0 0.0
2017-Jul-16 05:00N 29°44' W 095°12'1 2.8
2017-Jul-16 04:31N 29°45' W 095°11'2 3.1
2017-Jul-16 04:00N 29°44' W 095°09'2 4.9
2017-Jul-16 03:30N 29°45' W 095°06'3 4.9
2017-Jul-16 02:58N 29°47' W 095°04'1 2.1
2017-Jul-16 02:31N 29°47' W 095°04'0 0.1
2017-Jul-16 02:00N 29°47' W 095°04'0 0.2
2017-Jul-16 01:30N 29°47' W 095°04'0 0.0
2017-Jul-16 01:00N 29°47' W 095°04'2 3.5
2017-Jul-16 00:30N 29°46' W 095°05'1 0.0
2017-Jul-14 17:04N 29°46' W 095°06'0 0.0
2017-Jul-14 16:58N 29°46' W 095°06'0 0.0
2017-Jul-14 16:30N 29°46' W 095°06'0 0.0
2017-Jul-14 15:47N 29°46' W 095°06'0 0.0
2017-Jul-14 14:16N 29°46' W 095°06'0 0.0
2017-Jul-14 13:55N 29°46' W 095°06'0 0.0
2017-Jul-14 13:28N 29°46' W 095°06'0 0.0
2017-Jul-14 13:00N 29°46' W 095°06'0 0.0
2017-Jul-14 12:30N 29°46' W 095°06'0 0.0
2017-Jul-14 11:59N 29°46' W 095°06'0 0.0
2017-Jul-14 11:26N 29°46' W 095°06'0 0.0
2017-Jul-14 10:55N 29°46' W 095°06'0 0.0
2017-Jul-14 10:30N 29°46' W 095°06'0 0.0
2017-Jul-14 10:00N 29°46' W 095°06'0 0.0
2017-Jul-14 09:30N 29°46' W 095°06'0 0.0
2017-Jul-14 08:50N 29°46' W 095°06'0 0.0
2017-Jul-14 08:27N 29°46' W 095°06'0 0.0
2017-Jul-14 08:00N 29°46' W 095°06'0 0.0
2017-Jul-14 07:26N 29°46' W 095°06'0 0.0
2017-Jul-14 07:00N 29°46' W 095°06'0 0.0
2017-Jul-14 06:27N 29°46' W 095°06'0 0.0
2017-Jul-14 06:00N 29°46' W 095°06'0 0.0
2017-Jul-14 05:30N 29°46' W 095°06'0 0.0
2017-Jul-14 04:58N 29°46' W 095°06'0 0.0
2017-Jul-14 04:10N 29°46' W 095°06'0 0.0
2017-Jul-14 03:56N 29°46' W 095°06'0 0.0
2017-Jul-13 08:48N 29°46' W 095°06'1 3.7
2017-Jul-13 08:30N 29°46' W 095°05'2 2.7
2017-Jul-13 07:53N 29°47' W 095°04'1 3.1
2017-Jul-13 07:27N 29°46' W 095°05'1 2.2
2017-Jul-13 06:56N 29°46' W 095°06'0 0.1
2017-Jul-13 01:26N 29°46' W 095°06'0 0.0
2017-Jul-13 00:56N 29°46' W 095°06'0 0.0
2017-Jul-13 00:30N 29°46' W 095°06'0 0.1
2017-Jul-12 22:09N 29°46' W 095°06'0 3.0
2017-Jul-12 22:00N 29°46' W 095°05'2 4.8
2017-Jul-12 21:29N 29°44' W 095°07'2 4.0
2017-Jul-12 20:57N 29°44' W 095°10'0 0.0
2017-Jul-12 14:42N 29°44' W 095°10'0 0.0
2017-Jul-12 12:17N 29°44' W 095°10'0 0.0
2017-Jul-12 09:56N 29°44' W 095°10'0 0.0
2017-Jul-12 09:09N 29°44' W 095°10'0 0.0
2017-Jul-12 09:00N 29°44' W 095°10'0 0.0
2017-Jul-12 08:28N 29°44' W 095°10'0 0.0
2017-Jul-12 08:00N 29°44' W 095°10'0 0.0
2017-Jul-12 07:19N 29°44' W 095°10'0 0.0
2017-Jul-12 06:59N 29°44' W 095°10'0 0.0
2017-Jul-12 06:24N 29°44' W 095°10'0 0.0
2017-Jul-12 05:59N 29°44' W 095°10'0 0.0
2017-Jul-12 05:28N 29°44' W 095°10'0 0.0
2017-Jul-12 05:01N 29°44' W 095°10'0 0.0
2017-Jul-12 04:31N 29°44' W 095°10'0 0.0
2017-Jul-12 04:00N 29°44' W 095°10'0 0.0
2017-Jul-12 03:24N 29°44' W 095°10'0 1.0
2017-Jul-12 02:58N 29°44' W 095°09'2 5.2
2017-Jul-12 02:30N 29°44' W 095°07'2 4.6
2017-Jul-12 02:00N 29°46' W 095°04'3 5.1
2017-Jul-12 01:30N 29°44' W 095°02'2 3.1
2017-Jul-12 01:00N 29°43' W 095°01'2 4.3
2017-Jul-12 00:30N 29°41' W 094°59'3 5.1
2017-Jul-12 00:00N 29°39' W 094°58'3 5.7
2017-Jul-11 23:30N 29°36' W 094°57'3 6.0
2017-Jul-11 23:00N 29°34' W 094°55'3 5.6
2017-Jul-11 22:30N 29°31' W 094°53'3 5.9
2017-Jul-11 22:00N 29°29' W 094°52'  
Track history (hours):
 
Tides and Currents Weather Stations Pressure Air Temp Water Temp Dewpoint Dewpoint Depression Visibility Wind Speed Wind Dir Waves Ship Positions

Texas City

Owner: Marathon Petroleum Company LP, Findlay, OH. More information available from US FCC via Universal Licensing System and Coast Guard Vessel Documentation Center.

Last reported at 2017-Jul-19 23:38 UTC. Time now 2017-Jul-20 20:25 UTC.
Position N 29°51' W 091°54'.

Length 224 m; draft 2.9 m.

Type: . MMSI: 367135470.

Date/timePositionNaut miles runAvg speedWind from/ knotsBaromVisibWave heightAir tempDewpointWater temp
2017-Jul-19 23:38N 29°51' W 091°54'1 5.0
2017-Jul-19 23:24N 29°51' W 091°55'2 4.4
2017-Jul-19 23:01N 29°50' W 091°57'2 4.0
2017-Jul-19 22:30N 29°50' W 091°60'2 4.5
2017-Jul-19 22:00N 29°49' W 092°02'2 4.4
2017-Jul-19 21:31N 29°48' W 092°04'2 4.5
2017-Jul-19 21:00N 29°48' W 092°07'2 4.0
2017-Jul-19 20:30N 29°47' W 092°09'2 4.3
2017-Jul-19 20:00N 29°47' W 092°11'2 4.9
2017-Jul-19 19:30N 29°48' W 092°14'2 4.9
2017-Jul-19 19:01N 29°49' W 092°17'3 4.4
2017-Jul-19 18:26N 29°50' W 092°19'41 4.3
2017-Jul-19 08:47N 29°56' W 093°06'1 4.0
2017-Jul-19 08:30N 29°56' W 093°07'2 4.0
2017-Jul-19 08:00N 29°56' W 093°09'2 4.1
2017-Jul-19 07:30N 29°58' W 093°11'2 4.0
2017-Jul-19 07:00N 29°59' W 093°13'2 3.6
2017-Jul-19 06:31N 30°01' W 093°14'2 3.3
2017-Jul-19 06:01N 30°02' W 093°15'2 3.2
2017-Jul-19 05:30N 30°03' W 093°16'1 3.0
2017-Jul-19 05:00N 30°05' W 093°17'2 3.2
2017-Jul-19 04:30N 30°06' W 093°18'1 1.8
2017-Jul-19 04:00N 30°06' W 093°19'2 4.0
2017-Jul-19 03:30N 30°04' W 093°20'2 3.4
2017-Jul-19 03:00N 30°04' W 093°22'1 2.6
2017-Jul-19 02:30N 30°04' W 093°24'2 3.6
2017-Jul-19 02:00N 30°04' W 093°26'2 4.4
2017-Jul-19 01:30N 30°04' W 093°28'2 4.6
2017-Jul-19 01:00N 30°04' W 093°31'2 4.7
2017-Jul-19 00:31N 30°04' W 093°34'2 4.4
2017-Jul-19 00:00N 30°04' W 093°36'2 4.3
2017-Jul-18 23:30N 30°04' W 093°39'72 3.0
2017-Jul-17 23:06N 29°28' W 094°51'1 6.9
2017-Jul-17 23:00N 29°29' W 094°51'3 6.9
2017-Jul-17 22:31N 29°32' W 094°53'3 6.5
2017-Jul-17 22:01N 29°34' W 094°56'3 6.2
2017-Jul-17 21:30N 29°37' W 094°57'3 6.4
2017-Jul-17 21:00N 29°40' W 094°59'3 6.6
2017-Jul-17 20:30N 29°42' W 095°01'4 5.9
2017-Jul-17 19:48N 29°46' W 095°04'2 4.2
2017-Jul-17 19:26N 29°45' W 095°06'3 6.3
2017-Jul-17 18:59N 29°44' W 095°09'3 5.3
2017-Jul-17 18:30N 29°44' W 095°12'0 0.2
2017-Jul-17 17:53N 29°44' W 095°12'0 0.2
2017-Jul-17 16:44N 29°44' W 095°12'0 0.1
2017-Jul-17 16:30N 29°44' W 095°12'0 0.0
2017-Jul-17 16:00N 29°44' W 095°12'0 0.0
2017-Jul-17 15:30N 29°44' W 095°12'0 0.0
2017-Jul-17 14:04N 29°44' W 095°12'0 0.1
2017-Jul-17 13:57N 29°44' W 095°12'0 0.0
2017-Jul-17 13:23N 29°44' W 095°12'0 0.0
2017-Jul-17 12:58N 29°44' W 095°12'0 0.0
2017-Jul-17 12:25N 29°44' W 095°12'0 0.0
2017-Jul-17 11:59N 29°44' W 095°12'0 0.0
2017-Jul-17 04:44N 29°44' W 095°12'0 0.0
2017-Jul-16 21:51N 29°44' W 095°12'0 0.1
2017-Jul-16 21:06N 29°44' W 095°12'0 1.2
2017-Jul-16 20:59N 29°44' W 095°12'0 0.1
2017-Jul-16 17:21N 29°44' W 095°12'0 0.0
2017-Jul-16 14:33N 29°44' W 095°12'0 0.0
2017-Jul-16 14:18N 29°44' W 095°12'0 0.0
2017-Jul-16 14:00N 29°44' W 095°12'0 0.0
2017-Jul-16 13:29N 29°44' W 095°12'0 0.0
2017-Jul-16 12:59N 29°44' W 095°12'0 0.0
2017-Jul-16 12:29N 29°44' W 095°12'0 0.0
2017-Jul-16 11:59N 29°44' W 095°12'0 0.0
2017-Jul-16 11:22N 29°44' W 095°12'0 0.0
2017-Jul-16 11:00N 29°44' W 095°12'0 0.0
2017-Jul-16 10:22N 29°44' W 095°12'0 0.0
2017-Jul-16 09:39N 29°44' W 095°12'0 0.0
2017-Jul-16 09:26N 29°44' W 095°12'0 0.0
2017-Jul-16 09:00N 29°44' W 095°12'0 0.0
2017-Jul-16 08:26N 29°44' W 095°12'0 0.0
2017-Jul-16 07:54N 29°44' W 095°12'0 0.0
2017-Jul-16 07:22N 29°44' W 095°12'0 0.0
2017-Jul-16 05:54N 29°44' W 095°12'0 0.5
2017-Jul-16 05:30N 29°44' W 095°12'0 0.0
2017-Jul-16 05:00N 29°44' W 095°12'1 2.8
2017-Jul-16 04:31N 29°45' W 095°11'2 3.1
2017-Jul-16 04:00N 29°44' W 095°09'2 4.9
2017-Jul-16 03:30N 29°45' W 095°06'3 4.9
2017-Jul-16 02:58N 29°47' W 095°04'1 2.1
2017-Jul-16 02:31N 29°47' W 095°04'0 0.1
2017-Jul-16 02:00N 29°47' W 095°04'0 0.2
2017-Jul-16 01:30N 29°47' W 095°04'0 0.0
2017-Jul-16 01:00N 29°47' W 095°04'2 3.5
2017-Jul-16 00:30N 29°46' W 095°05'1 0.0
2017-Jul-14 17:04N 29°46' W 095°06'0 0.0
2017-Jul-14 16:58N 29°46' W 095°06'0 0.0
2017-Jul-14 16:30N 29°46' W 095°06'0 0.0
2017-Jul-14 15:47N 29°46' W 095°06'0 0.0
2017-Jul-14 14:16N 29°46' W 095°06'0 0.0
2017-Jul-14 13:55N 29°46' W 095°06'0 0.0
2017-Jul-14 13:28N 29°46' W 095°06'0 0.0
2017-Jul-14 13:00N 29°46' W 095°06'0 0.0
2017-Jul-14 12:30N 29°46' W 095°06'0 0.0
2017-Jul-14 11:59N 29°46' W 095°06'0 0.0
2017-Jul-14 11:26N 29°46' W 095°06'0 0.0
2017-Jul-14 10:55N 29°46' W 095°06'0 0.0
2017-Jul-14 10:30N 29°46' W 095°06'0 0.0
2017-Jul-14 10:00N 29°46' W 095°06'0 0.0
2017-Jul-14 09:30N 29°46' W 095°06'0 0.0
2017-Jul-14 08:50N 29°46' W 095°06'0 0.0
2017-Jul-14 08:27N 29°46' W 095°06'0 0.0
2017-Jul-14 08:00N 29°46' W 095°06'0 0.0
2017-Jul-14 07:26N 29°46' W 095°06'0 0.0
2017-Jul-14 07:00N 29°46' W 095°06'0 0.0
2017-Jul-14 06:27N 29°46' W 095°06'0 0.0
2017-Jul-14 06:00N 29°46' W 095°06'0 0.0
2017-Jul-14 05:30N 29°46' W 095°06'0 0.0
2017-Jul-14 04:58N 29°46' W 095°06'0 0.0
2017-Jul-14 04:10N 29°46' W 095°06'0 0.0
2017-Jul-14 03:56N 29°46' W 095°06'0 0.0
2017-Jul-13 08:48N 29°46' W 095°06'1 3.7
2017-Jul-13 08:30N 29°46' W 095°05'2 2.7
2017-Jul-13 07:53N 29°47' W 095°04'1 3.1
2017-Jul-13 07:27N 29°46' W 095°05'1 2.2
2017-Jul-13 06:56N 29°46' W 095°06'0 0.1
2017-Jul-13 01:26N 29°46' W 095°06'0 0.0
2017-Jul-13 00:56N 29°46' W 095°06'0 0.0
2017-Jul-13 00:30N 29°46' W 095°06'0 0.1
2017-Jul-12 22:09N 29°46' W 095°06'0 3.0
2017-Jul-12 22:00N 29°46' W 095°05'2 4.8
2017-Jul-12 21:29N 29°44' W 095°07'2 4.0
2017-Jul-12 20:57N 29°44' W 095°10'0 0.0
2017-Jul-12 14:42N 29°44' W 095°10'0 0.0
2017-Jul-12 12:17N 29°44' W 095°10'0 0.0
2017-Jul-12 09:56N 29°44' W 095°10'0 0.0
2017-Jul-12 09:09N 29°44' W 095°10'0 0.0
2017-Jul-12 09:00N 29°44' W 095°10'0 0.0
2017-Jul-12 08:28N 29°44' W 095°10'0 0.0
2017-Jul-12 08:00N 29°44' W 095°10'0 0.0
2017-Jul-12 07:19N 29°44' W 095°10'0 0.0
2017-Jul-12 06:59N 29°44' W 095°10'0 0.0
2017-Jul-12 06:24N 29°44' W 095°10'0 0.0
2017-Jul-12 05:59N 29°44' W 095°10'0 0.0
2017-Jul-12 05:28N 29°44' W 095°10'0 0.0
2017-Jul-12 05:01N 29°44' W 095°10'0 0.0
2017-Jul-12 04:31N 29°44' W 095°10'0 0.0
2017-Jul-12 04:00N 29°44' W 095°10'0 0.0
2017-Jul-12 03:24N 29°44' W 095°10'0 1.0
2017-Jul-12 02:58N 29°44' W 095°09'2 5.2
2017-Jul-12 02:30N 29°44' W 095°07'2 4.6
2017-Jul-12 02:00N 29°46' W 095°04'3 5.1
2017-Jul-12 01:30N 29°44' W 095°02'2 3.1
2017-Jul-12 01:00N 29°43' W 095°01'2 4.3
2017-Jul-12 00:30N 29°41' W 094°59'3 5.1
2017-Jul-12 00:00N 29°39' W 094°58'3 5.7
2017-Jul-11 23:30N 29°36' W 094°57'3 6.0
2017-Jul-11 23:00N 29°34' W 094°55'3 5.6
2017-Jul-11 22:30N 29°31' W 094°53'3 5.9
2017-Jul-11 22:00N 29°29' W 094°52'  

Dump ship's entire track history